Time;durP1;ratioP1;P1;durP2;ratioP2;P2;SDS_P1;SDS_P2;PMS_P1;PMS_P2;Temp;Humidity;BMP_temperature;BMP_pressure;BME280_temperature;BME280_humidity;BME280_pressure;Samples;Min_cycle;Max_cycle;Signal;HPM_P1;HPM_P2
2022/02/17 00:01:14;;;;;;;2.10;0.40;;;13.30;99.90;;;;;;5103481;28;20410;-89
2022/02/17 00:03:41;;;;;;;2.70;0.60;;;13.30;99.90;;;;;;5118172;28;20479;-88
2022/02/17 00:06:08;;;;;;;2.40;0.70;;;13.40;99.90;;;;;;5098839;28;20878;-88
2022/02/17 00:08:35;;;;;;;3.33;0.53;;;13.40;99.90;;;;;;5097908;28;20424;-89
2022/02/17 00:11:02;;;;;;;3.17;0.50;;;13.50;99.90;;;;;;5098774;28;20520;-89
2022/02/17 00:13:30;;;;;;;2.50;0.70;;;13.50;99.90;;;;;;5106108;28;20517;-88
2022/02/17 00:15:58;;;;;;;2.20;0.50;;;13.50;99.90;;;;;;5113290;28;20417;-88
2022/02/17 00:18:25;;;;;;;4.73;0.60;;;13.60;99.90;;;;;;5114188;28;20449;-88
2022/02/17 00:20:55;;;;;;;4.00;0.60;;;13.70;99.90;;;;;;5107616;28;20514;-88
2022/02/17 00:23:22;;;;;;;2.30;0.60;;;13.60;99.90;;;;;;5099830;28;20478;-88
2022/02/17 00:25:49;;;;;;;2.40;0.60;;;13.80;99.90;;;;;;5107542;28;20538;-89
2022/02/17 00:28:16;;;;;;;2.30;0.50;;;13.70;99.90;;;;;;5112779;28;20515;-88
2022/02/17 00:30:44;;;;;;;2.50;0.80;;;13.70;99.90;;;;;;5112163;28;20471;-88
2022/02/17 00:33:11;;;;;;;2.33;0.60;;;13.90;99.90;;;;;;5104000;28;20449;-88
2022/02/17 00:35:38;;;;;;;2.20;0.53;;;13.90;99.90;;;;;;5102774;28;20442;-88
2022/02/17 00:38:05;;;;;;;2.20;0.57;;;13.90;99.90;;;;;;5101835;28;20508;-88
2022/02/17 00:40:32;;;;;;;3.07;0.70;;;13.90;99.90;;;;;;5101135;28;20478;-88
2022/02/17 00:42:59;;;;;;;2.33;0.50;;;13.80;99.90;;;;;;5102611;28;20480;-89
2022/02/17 00:45:26;;;;;;;2.40;0.60;;;13.80;99.90;;;;;;5111039;28;20451;-88
2022/02/17 00:47:54;;;;;;;2.20;0.53;;;13.80;99.90;;;;;;5112821;28;20454;-88
2022/02/17 00:50:21;;;;;;;2.30;0.63;;;13.90;99.90;;;;;;5101262;28;20469;-88
2022/02/17 00:52:49;;;;;;;4.10;0.90;;;13.90;99.90;;;;;;5100728;28;20514;-88
2022/02/17 00:55:16;;;;;;;2.70;0.70;;;13.90;99.90;;;;;;5101848;28;20472;-88
2022/02/17 00:57:42;;;;;;;2.10;0.40;;;13.90;99.90;;;;;;5101648;28;20513;-88
2022/02/17 01:00:11;;;;;;;2.30;0.60;;;13.80;99.90;;;;;;5102726;28;20534;-89
2022/02/17 01:02:38;;;;;;;2.10;0.40;;;13.80;99.90;;;;;;5099991;28;20445;-88
2022/02/17 01:05:07;;;;;;;2.50;0.60;;;13.90;99.90;;;;;;5106141;28;20443;-89
2022/02/17 01:07:34;;;;;;;2.10;0.40;;;13.90;99.90;;;;;;5101544;28;20447;-88
2022/02/17 01:10:01;;;;;;;2.30;0.70;;;13.90;99.90;;;;;;5106825;28;20418;-88
2022/02/17 01:12:28;;;;;;;2.20;0.50;;;13.90;99.90;;;;;;5105478;28;20909;-88
2022/02/17 01:14:55;;;;;;;2.20;0.50;;;13.80;99.90;;;;;;5114893;28;20417;-89
2022/02/17 01:17:22;;;;;;;2.17;0.43;;;13.70;99.90;;;;;;5107035;28;20483;-88
2022/02/17 01:19:59;;;;;;;2.10;0.50;;;13.60;99.90;;;;;;5103956;28;20449;-89
2022/02/17 01:22:27;;;;;;;2.20;0.50;;;13.70;99.90;;;;;;5104314;28;20897;-88
2022/02/17 01:24:54;;;;;;;2.10;0.40;;;13.60;99.90;;;;;;5110083;28;20473;-87
2022/02/17 01:27:21;;;;;;;2.30;0.50;;;13.60;99.90;;;;;;5114537;28;20433;-87
2022/02/17 01:29:48;;;;;;;2.10;0.50;;;13.50;99.90;;;;;;5112317;28;20440;-88
2022/02/17 01:32:15;;;;;;;2.60;0.50;;;13.40;99.90;;;;;;5100247;28;20425;-88
2022/02/17 01:34:42;;;;;;;2.03;0.40;;;13.30;99.90;;;;;;5106971;28;20794;-88
2022/02/17 01:37:09;;;;;;;4.03;0.70;;;13.40;99.90;;;;;;5114857;28;20435;-88
2022/02/17 01:39:37;;;;;;;2.20;0.50;;;13.40;99.90;;;;;;5113341;28;20451;-88
2022/02/17 01:42:08;;;;;;;3.00;0.50;;;13.40;99.90;;;;;;5106088;28;20474;-89
2022/02/17 01:44:34;;;;;;;3.03;0.50;;;13.40;99.90;;;;;;5099718;28;20408;-88
2022/02/17 01:47:01;;;;;;;2.10;0.50;;;13.40;99.90;;;;;;5101138;28;20454;-88
2022/02/17 01:49:28;;;;;;;2.20;0.60;;;13.40;99.90;;;;;;5101536;28;20464;-88
2022/02/17 01:51:55;;;;;;;2.30;0.50;;;13.20;99.90;;;;;;5100137;28;20438;-88
2022/02/17 01:54:23;;;;;;;2.10;0.50;;;13.20;99.90;;;;;;5103216;28;20493;-88
2022/02/17 01:57:08;;;;;;;2.20;0.57;;;13.30;99.90;;;;;;5107259;28;20485;-89
2022/02/17 01:59:35;;;;;;;2.00;0.40;;;13.20;99.90;;;;;;5102945;28;20426;-89
2022/02/17 02:02:02;;;;;;;2.60;0.50;;;13.20;99.90;;;;;;5104149;28;20434;-88
2022/02/17 02:04:29;;;;;;;2.07;0.50;;;13.20;99.90;;;;;;5106706;28;20443;-88
2022/02/17 02:06:57;;;;;;;2.40;0.50;;;13.10;99.90;;;;;;5118315;28;20909;-88
2022/02/17 02:09:24;;;;;;;2.10;0.50;;;13.10;99.90;;;;;;5119009;28;20479;-88
2022/02/17 02:11:55;;;;;;;2.30;0.60;;;13.10;99.90;;;;;;5117333;28;20475;-87
2022/02/17 02:14:22;;;;;;;2.17;0.40;;;13.00;99.90;;;;;;5105843;28;20438;-88
2022/02/17 02:16:50;;;;;;;2.23;0.60;;;13.00;99.90;;;;;;5101232;28;20553;-89
2022/02/17 02:19:17;;;;;;;2.10;0.50;;;13.00;99.90;;;;;;5104866;28;20466;-88
2022/02/17 02:21:45;;;;;;;5.27;0.80;;;13.10;99.90;;;;;;5104855;28;20478;-88
2022/02/17 02:24:12;;;;;;;2.10;0.50;;;13.00;99.90;;;;;;5103608;28;20498;-88
2022/02/17 02:26:39;;;;;;;2.07;0.40;;;13.00;99.90;;;;;;5116152;28;20786;-89
2022/02/17 02:29:06;;;;;;;2.10;0.40;;;13.00;99.90;;;;;;5103107;28;20496;-89
2022/02/17 02:31:33;;;;;;;3.90;0.80;;;13.00;99.90;;;;;;5104442;28;20558;-88
2022/02/17 02:33:59;;;;;;;2.70;0.40;;;13.00;99.90;;;;;;5103129;28;20553;-89
2022/02/17 02:36:27;;;;;;;2.10;0.50;;;12.90;99.90;;;;;;5104096;28;20542;-89
2022/02/17 02:38:56;;;;;;;2.20;0.50;;;12.90;99.90;;;;;;5101059;28;20543;-89
2022/02/17 02:41:23;;;;;;;2.53;0.50;;;12.90;99.90;;;;;;5100612;28;20522;-89
2022/02/17 02:43:50;;;;;;;2.43;0.50;;;12.80;99.90;;;;;;5100045;28;20467;-89
2022/02/17 02:46:17;;;;;;;2.00;0.40;;;12.90;99.90;;;;;;5100197;28;20579;-89
2022/02/17 02:48:45;;;;;;;2.70;0.47;;;12.80;99.90;;;;;;5100249;28;20485;-89
2022/02/17 02:51:12;;;;;;;2.10;0.50;;;12.80;99.90;;;;;;5106927;28;20451;-89
2022/02/17 02:53:39;;;;;;;2.10;0.40;;;12.90;99.90;;;;;;5131153;22;20490;-84
2022/02/17 02:56:07;;;;;;;2.03;0.50;;;12.80;99.90;;;;;;5101762;28;20529;-84
2022/02/17 02:58:35;;;;;;;2.10;0.50;;;12.80;99.90;;;;;;5100339;28;20494;-84
2022/02/17 03:01:02;;;;;;;2.20;0.50;;;12.80;99.90;;;;;;5099478;28;20563;-84
2022/02/17 03:03:29;;;;;;;2.10;0.40;;;12.80;99.90;;;;;;5103774;28;20450;-84
2022/02/17 03:05:56;;;;;;;2.60;0.60;;;12.80;99.90;;;;;;5127138;28;20480;-83
2022/02/17 03:08:23;;;;;;;2.30;0.50;;;12.80;99.90;;;;;;5124099;28;20444;-85
2022/02/17 03:10:50;;;;;;;2.20;0.50;;;12.80;99.90;;;;;;5120493;28;20529;-84
2022/02/17 03:13:18;;;;;;;2.40;0.60;;;12.80;99.90;;;;;;5118653;28;20454;-84
2022/02/17 03:15:44;;;;;;;3.30;0.50;;;12.80;99.90;;;;;;5119187;28;20456;-84
2022/02/17 03:18:11;;;;;;;2.77;0.77;;;12.80;99.90;;;;;;5119025;28;20478;-84
2022/02/17 03:20:40;;;;;;;2.10;0.50;;;12.80;99.90;;;;;;5118919;28;20492;-84
2022/02/17 03:23:07;;;;;;;2.10;0.40;;;12.90;99.90;;;;;;5118647;28;20500;-84
2022/02/17 03:25:34;;;;;;;2.10;0.50;;;12.90;99.90;;;;;;5120048;28;20430;-84
2022/02/17 03:28:00;;;;;;;2.30;0.50;;;12.80;99.90;;;;;;5120250;28;20831;-85
2022/02/17 03:30:29;;;;;;;2.77;0.50;;;12.90;99.90;;;;;;5119354;28;20444;-84
2022/02/17 03:32:56;;;;;;;2.20;0.50;;;12.90;99.90;;;;;;5120619;28;20454;-84
2022/02/17 03:35:23;;;;;;;2.10;0.50;;;12.80;99.90;;;;;;5119380;28;20587;-84
2022/02/17 03:37:50;;;;;;;2.10;0.50;;;12.80;99.90;;;;;;5118516;28;20958;-84
2022/02/17 03:40:16;;;;;;;2.00;0.40;;;12.80;99.90;;;;;;5120446;28;20452;-84
2022/02/17 03:42:44;;;;;;;2.90;0.50;;;12.80;99.90;;;;;;5123861;28;20529;-85
2022/02/17 03:45:11;;;;;;;2.30;0.50;;;12.80;99.90;;;;;;5119080;28;20489;-84
2022/02/17 03:47:39;;;;;;;3.50;0.50;;;12.90;99.90;;;;;;5119728;28;20446;-84
2022/02/17 03:50:09;;;;;;;2.10;0.50;;;12.80;99.90;;;;;;5119824;28;20445;-84
2022/02/17 03:52:37;;;;;;;2.17;0.50;;;12.90;99.90;;;;;;5118848;28;20541;-84
2022/02/17 03:55:04;;;;;;;2.00;0.40;;;12.80;99.90;;;;;;5118544;28;20848;-84
2022/02/17 03:57:31;;;;;;;2.30;0.60;;;12.80;99.90;;;;;;5123092;28;20427;-84
2022/02/17 03:59:58;;;;;;;2.10;0.50;;;12.80;99.90;;;;;;5120307;28;20960;-85
2022/02/17 04:02:25;;;;;;;2.00;0.40;;;12.80;99.90;;;;;;5120080;28;20803;-85
2022/02/17 04:04:54;;;;;;;2.27;0.50;;;12.80;99.90;;;;;;5118802;28;20458;-85
2022/02/17 04:07:21;;;;;;;2.20;0.47;;;12.90;99.90;;;;;;5119868;28;20430;-85
2022/02/17 04:09:48;;;;;;;4.73;0.60;;;12.90;99.90;;;;;;5119323;28;20425;-84
2022/02/17 04:12:15;;;;;;;2.10;0.50;;;12.90;99.90;;;;;;5119084;28;20835;-85
2022/02/17 04:14:42;;;;;;;2.40;0.60;;;13.00;99.90;;;;;;5119058;28;20442;-85
2022/02/17 04:17:09;;;;;;;2.70;0.53;;;13.00;99.90;;;;;;5122509;28;20476;-85
2022/02/17 04:19:36;;;;;;;2.10;0.50;;;13.00;99.90;;;;;;5128769;28;20557;-85
2022/02/17 04:22:04;;;;;;;4.00;0.50;;;13.00;99.90;;;;;;5126837;28;20495;-85
2022/02/17 04:24:31;;;;;;;2.07;0.40;;;13.00;99.90;;;;;;5136330;28;20446;-85
2022/02/17 04:26:58;;;;;;;2.20;0.50;;;13.00;99.90;;;;;;5138675;28;20466;-85
2022/02/17 04:29:25;;;;;;;2.63;0.63;;;13.00;99.90;;;;;;5125161;28;20461;-85
2022/02/17 04:31:52;;;;;;;2.10;0.40;;;13.10;99.90;;;;;;5122141;28;20460;-85
2022/02/17 04:34:19;;;;;;;2.20;0.50;;;13.20;99.90;;;;;;5127467;28;20463;-85
2022/02/17 04:36:46;;;;;;;2.30;0.50;;;13.10;99.90;;;;;;5138318;28;20450;-85
2022/02/17 04:39:15;;;;;;;2.00;0.40;;;13.10;99.90;;;;;;5121365;28;20465;-85
2022/02/17 04:44:26;;;;;;;2.97;0.50;;;13.10;99.90;;;;;;5119385;28;20460;-85
2022/02/17 04:46:53;;;;;;;2.07;0.50;;;13.10;99.90;;;;;;5118970;28;20440;-84
2022/02/17 04:49:19;;;;;;;2.57;0.40;;;13.20;99.90;;;;;;5131060;28;20443;-84
2022/02/17 04:51:46;;;;;;;2.27;0.50;;;13.20;99.90;;;;;;5122993;28;20412;-84
2022/02/17 04:54:15;;;;;;;2.20;0.53;;;13.10;99.90;;;;;;5121821;28;20475;-84
2022/02/17 04:56:41;;;;;;;2.20;0.50;;;13.20;99.90;;;;;;5120180;28;20799;-85
2022/02/17 04:59:08;;;;;;;2.10;0.50;;;13.20;99.90;;;;;;5119576;28;20491;-84
2022/02/17 05:01:35;;;;;;;2.10;0.50;;;13.20;99.90;;;;;;5119283;28;20537;-84
2022/02/17 05:04:02;;;;;;;2.13;0.50;;;13.10;99.90;;;;;;5118680;28;20497;-84
2022/02/17 05:06:29;;;;;;;2.10;0.50;;;13.20;99.90;;;;;;5118474;28;20484;-84
2022/02/17 05:08:56;;;;;;;2.33;0.50;;;13.20;99.90;;;;;;5118145;28;20474;-84
2022/02/17 05:11:24;;;;;;;2.30;0.50;;;13.30;99.90;;;;;;5117648;28;20452;-84
2022/02/17 05:13:51;;;;;;;2.10;0.50;;;13.30;99.90;;;;;;5118542;28;20499;-84
2022/02/17 05:16:18;;;;;;;2.30;0.53;;;13.20;99.90;;;;;;5119661;28;20490;-84
2022/02/17 05:18:45;;;;;;;2.47;0.57;;;13.20;99.90;;;;;;5118642;28;20471;-84
2022/02/17 05:21:11;;;;;;;2.63;0.60;;;13.20;99.90;;;;;;5118609;28;20527;-84
2022/02/17 05:23:38;;;;;;;2.30;0.50;;;13.20;99.90;;;;;;5120714;28;20470;-84
2022/02/17 05:26:05;;;;;;;2.10;0.50;;;13.20;99.90;;;;;;5122871;28;20512;-85
2022/02/17 05:28:33;;;;;;;3.17;0.60;;;13.20;99.90;;;;;;5122905;28;20426;-84
2022/02/17 05:31:00;;;;;;;2.30;0.50;;;13.30;99.90;;;;;;5123560;28;20503;-85
2022/02/17 05:33:27;;;;;;;2.80;0.50;;;13.30;99.90;;;;;;5123408;28;20489;-85
2022/02/17 05:35:54;;;;;;;2.30;0.60;;;13.40;99.90;;;;;;5127147;28;20481;-84
2022/02/17 05:38:21;;;;;;;3.07;0.80;;;13.40;99.90;;;;;;5125909;28;20545;-85
2022/02/17 05:40:48;;;;;;;2.47;0.60;;;13.40;99.90;;;;;;5125253;28;20428;-85
2022/02/17 05:43:15;;;;;;;2.50;0.67;;;13.40;99.90;;;;;;5124622;28;20485;-84
2022/02/17 05:45:43;;;;;;;2.30;0.50;;;13.40;99.90;;;;;;5122773;28;20441;-85
2022/02/17 05:48:10;;;;;;;2.40;0.60;;;13.40;99.90;;;;;;5123568;28;20421;-84
2022/02/17 05:50:37;;;;;;;2.70;0.60;;;13.40;99.90;;;;;;5122324;28;20457;-85
2022/02/17 05:53:04;;;;;;;2.20;0.50;;;13.50;99.90;;;;;;5122597;28;20824;-85
2022/02/17 05:55:31;;;;;;;2.70;0.77;;;13.40;99.90;;;;;;5122407;28;20502;-85
2022/02/17 05:58:02;;;;;;;2.40;0.70;;;13.30;99.90;;;;;;5122605;28;20846;-84
2022/02/17 06:00:29;;;;;;;2.87;0.80;;;13.30;99.90;;;;;;5121825;28;20967;-85
2022/02/17 06:02:57;;;;;;;2.83;0.80;;;13.30;99.90;;;;;;5122211;28;20536;-84
2022/02/17 06:05:23;;;;;;;2.90;0.80;;;13.20;99.90;;;;;;5121641;28;20471;-85
2022/02/17 06:07:50;;;;;;;2.40;0.70;;;13.20;99.90;;;;;;5121182;28;20573;-84
2022/02/17 06:10:17;;;;;;;2.20;0.60;;;13.20;99.90;;;;;;5122525;28;20937;-84
2022/02/17 06:12:45;;;;;;;5.17;0.93;;;13.20;99.90;;;;;;5120748;28;20507;-84
2022/02/17 06:15:14;;;;;;;4.50;1.00;;;13.20;99.90;;;;;;5121146;28;20497;-84
2022/02/17 06:17:41;;;;;;;3.50;1.13;;;13.30;99.90;;;;;;5121197;28;20541;-84
2022/02/17 06:20:11;;;;;;;2.93;0.93;;;13.30;99.90;;;;;;5121311;28;20456;-84
2022/02/17 06:22:46;;;;;;;4.37;0.93;;;13.30;99.90;;;;;;5121900;28;20511;-84
2022/02/17 06:25:14;;;;;;;2.70;0.73;;;13.30;99.90;;;;;;5121197;28;20484;-84
2022/02/17 06:27:41;;;;;;;4.50;0.93;;;13.20;99.90;;;;;;5122892;28;20932;-85
2022/02/17 06:30:08;;;;;;;4.70;1.10;;;13.10;99.90;;;;;;5123727;28;20450;-85
2022/02/17 06:32:35;;;;;;;3.80;1.07;;;13.20;99.90;;;;;;5129399;28;20812;-86
2022/02/17 06:35:02;;;;;;;3.77;1.50;;;13.00;99.90;;;;;;5125177;28;20472;-86
2022/02/17 06:37:30;;;;;;;5.90;1.50;;;13.00;99.90;;;;;;5128749;28;20427;-84
2022/02/17 06:39:57;;;;;;;4.83;1.20;;;12.90;99.90;;;;;;5128997;28;20815;-86
2022/02/17 06:42:24;;;;;;;6.17;1.20;;;13.00;99.90;;;;;;5122819;28;20420;-86
2022/02/17 06:44:51;;;;;;;4.80;1.00;;;13.00;99.90;;;;;;5122178;28;20440;-85
2022/02/17 06:47:18;;;;;;;8.47;1.83;;;12.90;99.90;;;;;;5124006;28;20417;-85
2022/02/17 06:49:45;;;;;;;8.63;1.40;;;12.70;99.90;;;;;;5129102;28;20423;-84
2022/02/17 06:52:12;;;;;;;5.87;1.53;;;12.70;99.90;;;;;;5121765;28;20809;-85
2022/02/17 06:54:41;;;;;;;4.27;1.00;;;12.80;99.90;;;;;;5121926;28;20493;-84
2022/02/17 06:57:09;;;;;;;4.80;1.30;;;12.80;99.90;;;;;;5121998;28;20815;-84
2022/02/17 06:59:36;;;;;;;8.13;1.80;;;12.70;99.90;;;;;;5121078;28;20477;-84
2022/02/17 07:02:03;;;;;;;4.60;1.60;;;12.70;99.90;;;;;;5121609;28;20448;-84
2022/02/17 07:04:30;;;;;;;11.63;1.60;;;12.80;99.90;;;;;;5121009;28;20549;-84
2022/02/17 07:06:57;;;;;;;4.77;1.47;;;12.70;99.90;;;;;;5120389;28;20456;-85
2022/02/17 07:09:24;;;;;;;9.07;1.90;;;12.80;99.90;;;;;;5120893;28;20465;-84
2022/02/17 07:11:53;;;;;;;10.97;3.37;;;12.80;99.90;;;;;;5120856;28;20446;-84
2022/02/17 07:14:23;;;;;;;7.87;2.27;;;12.70;99.90;;;;;;5124046;28;20527;-84
2022/02/17 07:16:53;;;;;;;5.63;1.80;;;12.70;99.90;;;;;;5122692;28;20455;-85
2022/02/17 07:19:20;;;;;;;7.17;1.10;;;12.70;99.90;;;;;;5121588;28;20765;-85
2022/02/17 07:21:49;;;;;;;7.97;2.33;;;12.80;99.90;;;;;;5120692;28;20496;-85
2022/02/17 07:24:16;;;;;;;9.83;2.50;;;12.70;99.90;;;;;;5122054;28;20474;-85
2022/02/17 07:26:43;;;;;;;6.07;1.40;;;12.80;99.90;;;;;;5124644;28;20450;-85
2022/02/17 07:29:12;;;;;;;7.80;2.10;;;12.80;99.90;;;;;;5134409;28;20452;-86
2022/02/17 07:31:39;;;;;;;10.80;2.70;;;12.60;99.90;;;;;;5138802;28;20540;-84
2022/02/17 07:34:06;;;;;;;4.93;1.77;;;12.60;99.90;;;;;;5128274;28;20425;-85
2022/02/17 07:36:35;;;;;;;7.77;1.77;;;12.60;99.90;;;;;;5123392;28;20485;-85
2022/02/17 07:39:04;;;;;;;5.80;1.47;;;12.50;99.90;;;;;;5125418;28;20497;-85
2022/02/17 07:41:31;;;;;;;6.20;1.40;;;12.50;99.90;;;;;;5137780;28;20442;-85
2022/02/17 07:43:58;;;;;;;9.30;2.30;;;12.60;99.90;;;;;;5127116;28;20428;-85
2022/02/17 07:46:27;;;;;;;10.80;1.93;;;12.60;99.90;;;;;;5122034;28;20442;-85
2022/02/17 07:48:57;;;;;;;5.87;1.70;;;12.50;99.90;;;;;;5120838;28;20450;-86
2022/02/17 07:51:23;;;;;;;8.60;2.23;;;12.50;99.90;;;;;;5120214;28;20489;-85
2022/02/17 07:53:50;;;;;;;4.37;1.13;;;12.70;99.90;;;;;;5120141;28;20493;-85
2022/02/17 07:56:17;;;;;;;8.97;1.90;;;12.70;99.90;;;;;;5122423;28;20430;-84
2022/02/17 07:58:44;;;;;;;5.43;1.63;;;12.60;99.90;;;;;;5121998;28;20465;-85
2022/02/17 08:01:13;;;;;;;6.07;1.70;;;12.70;99.90;;;;;;5121660;28;20473;-86
2022/02/17 08:03:41;;;;;;;6.30;1.67;;;12.80;99.90;;;;;;5121780;28;20973;-83
2022/02/17 08:06:08;;;;;;;5.70;1.60;;;12.70;99.90;;;;;;5123702;28;20873;-84
2022/02/17 08:08:35;;;;;;;5.93;1.60;;;12.70;99.90;;;;;;5121728;28;20485;-84
2022/02/17 08:11:05;;;;;;;7.80;1.90;;;12.80;99.90;;;;;;5122493;28;20480;-85
2022/02/17 08:13:32;;;;;;;6.63;2.30;;;12.90;99.90;;;;;;5122633;28;20518;-86
2022/02/17 08:15:59;;;;;;;6.33;1.87;;;13.00;99.90;;;;;;5127438;28;20448;-84
2022/02/17 08:18:26;;;;;;;6.37;1.70;;;13.10;99.90;;;;;;5127136;28;20961;-85
2022/02/17 08:20:54;;;;;;;9.70;2.40;;;13.20;99.90;;;;;;5119892;28;20500;-84
2022/02/17 08:23:23;;;;;;;8.27;2.33;;;13.20;99.90;;;;;;5119126;28;20455;-85
2022/02/17 08:25:50;;;;;;;6.07;2.03;;;13.20;99.90;;;;;;5122260;28;20450;-85
2022/02/17 08:28:17;;;;;;;10.10;2.40;;;13.30;99.90;;;;;;5119407;28;20454;-85
2022/02/17 08:30:44;;;;;;;7.33;1.80;;;13.20;99.90;;;;;;5119396;28;20499;-84
2022/02/17 08:33:11;;;;;;;6.17;1.60;;;13.10;99.90;;;;;;5120052;28;20445;-85
2022/02/17 08:35:38;;;;;;;5.63;1.60;;;13.20;99.90;;;;;;5119513;28;20473;-85
2022/02/17 08:38:06;;;;;;;16.93;2.57;;;13.30;99.90;;;;;;5119757;28;20428;-85
2022/02/17 08:40:33;;;;;;;9.70;1.70;;;13.30;99.90;;;;;;5119852;28;20463;-86
2022/02/17 08:43:08;;;;;;;11.20;2.30;;;13.20;99.90;;;;;;5120080;28;20435;-86
2022/02/17 08:45:36;;;;;;;7.53;2.50;;;13.20;99.90;;;;;;5124628;28;20431;-86
2022/02/17 08:48:03;;;;;;;7.67;1.50;;;13.30;99.90;;;;;;5122305;28;20504;-85
2022/02/17 08:50:30;;;;;;;5.40;1.33;;;13.20;99.90;;;;;;5120016;28;20892;-84
2022/02/17 08:52:59;;;;;;;7.33;1.90;;;13.20;99.90;;;;;;5118685;28;20435;-85
2022/02/17 08:55:28;;;;;;;9.30;2.40;;;13.30;99.90;;;;;;5120196;28;20448;-85
2022/02/17 08:57:55;;;;;;;8.73;2.30;;;13.20;99.90;;;;;;5123899;28;20420;-83
2022/02/17 09:00:22;;;;;;;8.07;2.23;;;13.30;99.90;;;;;;5134683;22;20503;-88
2022/02/17 09:02:57;;;;;;;10.13;2.60;;;13.20;99.90;;;;;;5114191;28;20434;-88
2022/02/17 09:05:27;;;;;;;6.43;2.30;;;13.30;99.90;;;;;;5107425;28;20441;-89
2022/02/17 09:07:54;;;;;;;11.97;3.07;;;13.50;99.90;;;;;;5112920;28;20896;-88
2022/02/17 09:10:29;;;;;;;8.40;3.10;;;13.60;99.90;;;;;;5131405;28;20454;-89
2022/02/17 09:13:00;;;;;;;8.83;2.93;;;13.70;99.90;;;;;;5141147;28;20445;-88
2022/02/17 09:15:27;;;;;;;4.47;1.40;;;13.70;99.90;;;;;;5142138;28;20430;-88
2022/02/17 09:17:54;;;;;;;12.97;3.20;;;13.50;99.90;;;;;;5135400;28;20806;-88
2022/02/17 09:20:21;;;;;;;6.97;2.10;;;13.50;99.90;;;;;;5132527;28;20505;-88
2022/02/17 09:22:48;;;;;;;14.40;3.83;;;13.50;99.90;;;;;;5130965;28;20471;-89
2022/02/17 09:25:16;;;;;;;14.90;2.83;;;13.60;99.90;;;;;;5133112;28;20446;-88
2022/02/17 09:27:43;;;;;;;9.50;2.70;;;13.70;99.80;;;;;;5134439;28;20436;-88
2022/02/17 09:30:14;;;;;;;5.93;2.27;;;13.70;99.00;;;;;;5137682;28;20473;-89
2022/02/17 09:32:41;;;;;;;10.33;3.43;;;13.70;96.40;;;;;;5135348;28;20405;-89
2022/02/17 09:35:11;;;;;;;6.53;2.17;;;13.70;95.90;;;;;;5140254;28;20420;-87
2022/02/17 09:37:38;;;;;;;10.40;2.47;;;13.80;95.60;;;;;;5142545;28;20937;-87
2022/02/17 09:40:09;;;;;;;9.73;2.63;;;13.90;94.70;;;;;;5135476;28;20460;-89
2022/02/17 09:42:38;;;;;;;8.07;2.73;;;13.80;94.50;;;;;;5141403;27;20424;-89
2022/02/17 09:47:52;;;;;;;10.30;2.73;;;13.80;94.40;;;;;;5128741;28;20446;-89
2022/02/17 09:50:19;;;;;;;8.93;3.10;;;13.80;93.80;;;;;;5129353;28;20433;-89
2022/02/17 09:52:49;;;;;;;8.10;3.20;;;13.80;94.00;;;;;;5128780;28;20445;-89
2022/02/17 09:55:19;;;;;;;10.27;2.93;;;13.60;94.60;;;;;;5127503;28;20973;-88
2022/02/17 09:57:55;;;;;;;8.30;2.80;;;13.60;94.50;;;;;;5128676;28;20451;-88
2022/02/17 10:00:22;;;;;;;4.60;1.60;;;13.60;94.90;;;;;;5131816;28;20999;-90
2022/02/17 10:02:49;;;;;;;13.63;3.60;;;13.60;95.00;;;;;;5129702;28;20434;-88
2022/02/17 10:05:17;;;;;;;15.87;3.43;;;13.60;95.30;;;;;;5129286;28;20420;-88
2022/02/17 10:07:47;;;;;;;13.70;3.23;;;13.70;95.30;;;;;;5131015;28;20438;-89
2022/02/17 10:10:18;;;;;;;11.27;2.77;;;13.80;95.30;;;;;;5136712;28;20484;-88
2022/02/17 10:12:58;;;;;;;12.30;3.20;;;13.90;95.30;;;;;;5141598;28;20412;-88
2022/02/17 10:15:27;;;;;;;10.93;3.23;;;14.00;95.50;;;;;;5132547;28;20432;-88
2022/02/17 10:18:09;;;;;;;14.67;3.73;;;14.00;95.80;;;;;;5132892;28;20844;-89
2022/02/17 10:20:57;;;;;;;11.57;3.03;;;14.10;96.20;;;;;;5125773;28;20492;-89
2022/02/17 10:23:26;;;;;;;12.77;2.93;;;14.20;96.50;;;;;;5135649;28;20416;-88
2022/02/17 10:26:07;;;;;;;10.30;3.03;;;14.00;96.80;;;;;;5134542;28;20397;-90
2022/02/17 10:28:36;;;;;;;8.87;2.80;;;13.80;97.00;;;;;;5132445;28;20476;-89
2022/02/17 10:31:03;;;;;;;14.77;2.20;;;13.50;98.20;;;;;;5140364;28;20495;-87
2022/02/17 10:33:44;;;;;;;10.07;2.40;;;13.40;98.90;;;;;;5135269;28;20424;-89
2022/02/17 10:36:49;;;;;;;11.00;3.20;;;13.30;99.30;;;;;;5132984;28;20437;-88
2022/02/17 10:39:19;;;;;;;9.87;1.70;;;13.20;99.80;;;;;;5132823;28;20446;-90
2022/02/17 10:41:51;;;;;;;9.07;2.93;;;13.20;99.90;;;;;;5139836;28;20474;-89
2022/02/17 10:44:20;;;;;;;12.80;2.87;;;13.20;99.90;;;;;;5129474;28;20452;-89
2022/02/17 10:46:48;;;;;;;10.80;2.97;;;13.30;99.90;;;;;;5127809;28;20465;-89
2022/02/17 10:49:18;;;;;;;10.60;3.27;;;13.30;99.90;;;;;;5123161;28;20536;-89
2022/02/17 10:51:48;;;;;;;8.00;1.97;;;13.20;99.90;;;;;;5124342;28;20417;-89
2022/02/17 10:54:20;;;;;;;14.83;3.57;;;13.30;99.90;;;;;;5125174;28;20441;-89
2022/02/17 10:56:51;;;;;;;9.13;3.00;;;13.30;99.90;;;;;;5124536;28;20460;-89
2022/02/17 11:02:13;;;;;;;13.20;3.20;;;13.20;99.90;;;;;;5123301;28;20503;-91
2022/02/17 11:04:41;;;;;;;17.93;4.03;;;13.10;99.90;;;;;;5137810;28;20460;-90
2022/02/17 11:07:12;;;;;;;11.87;2.90;;;13.30;99.90;;;;;;5121536;28;21019;-91
2022/02/17 11:09:42;;;;;;;14.33;3.10;;;13.30;99.50;;;;;;5122523;28;20462;-89
2022/02/17 11:12:10;;;;;;;9.03;2.67;;;13.50;99.40;;;;;;5129121;28;20785;-90
2022/02/17 11:14:38;;;;;;;14.27;3.03;;;13.50;98.70;;;;;;5122642;28;20506;-88
2022/02/17 11:17:06;;;;;;;13.50;2.90;;;13.50;97.80;;;;;;5123858;28;20477;-90
2022/02/17 11:19:34;;;;;;;10.23;2.90;;;13.60;97.40;;;;;;5122158;28;20478;-87
2022/02/17 11:22:03;;;;;;;11.87;3.07;;;13.50;96.60;;;;;;5122369;28;20488;-89
2022/02/17 11:24:46;;;;;;;13.93;3.30;;;13.70;96.60;;;;;;5131853;28;20461;-89
2022/02/17 11:27:13;;;;;;;9.00;3.03;;;13.90;95.80;;;;;;5124291;28;20432;-88
2022/02/17 11:29:41;;;;;;;10.03;2.60;;;13.90;95.50;;;;;;5124576;28;20497;-88
2022/02/17 11:32:13;;;;;;;8.17;2.63;;;13.70;95.20;;;;;;5125147;28;20431;-89
2022/02/17 11:34:43;;;;;;;10.00;2.67;;;13.50;93.90;;;;;;5121391;28;20442;-89
2022/02/17 11:37:32;;;;;;;10.83;3.00;;;13.60;93.80;;;;;;5120774;28;20899;-90
2022/02/17 11:40:03;;;;;;;11.13;3.13;;;13.70;93.30;;;;;;5123902;28;20876;-89
2022/02/17 11:42:34;;;;;;;10.53;3.20;;;13.60;93.20;;;;;;5122787;28;20409;-89
2022/02/17 11:45:12;;;;;;;9.57;2.50;;;13.60;93.50;;;;;;5123983;28;20447;-89
2022/02/17 11:47:58;;;;;;;8.73;2.17;;;13.40;93.70;;;;;;5123893;28;20449;-91
2022/02/17 11:50:39;;;;;;;12.97;3.33;;;13.40;93.80;;;;;;5132019;28;20465;-89
2022/02/17 11:53:32;;;;;;;13.50;3.40;;;13.30;94.20;;;;;;5124967;28;20478;-89
2022/02/17 11:56:47;;;;;;;13.77;3.03;;;13.30;94.30;;;;;;5123289;28;20465;-89
2022/02/17 11:59:35;;;;;;;11.30;3.17;;;13.50;94.60;;;;;;5122541;28;20485;-90
2022/02/17 12:02:06;;;;;;;9.30;3.30;;;13.60;94.00;;;;;;5123188;28;20509;-89
2022/02/17 12:04:35;;;;;;;9.43;2.47;;;13.60;93.80;;;;;;5126949;28;20432;-90
2022/02/17 12:07:03;;;;;;;10.00;3.93;;;13.70;93.60;;;;;;5137476;28;20458;-90
2022/02/17 12:09:39;;;;;;;9.90;2.90;;;13.80;93.60;;;;;;5130445;28;20469;-90
2022/02/17 12:12:46;;;;;;;11.17;3.60;;;13.70;93.50;;;;;;5123994;28;20453;-91
2022/02/17 12:15:18;;;;;;;11.50;2.90;;;13.70;93.60;;;;;;5128962;28;20434;-89
2022/02/17 12:17:48;;;;;;;13.20;3.40;;;13.70;93.90;;;;;;5136117;28;20426;-89
2022/02/17 12:20:21;;;;;;;12.17;3.27;;;13.60;94.30;;;;;;5125915;28;20462;-90
2022/02/17 12:22:53;;;;;;;12.63;3.70;;;13.70;94.70;;;;;;5130378;28;20409;-88
2022/02/17 12:25:23;;;;;;;15.30;2.87;;;13.70;94.90;;;;;;5123068;28;20515;-89
2022/02/17 12:27:58;;;;;;;16.00;4.40;;;13.60;94.40;;;;;;5121764;28;20409;-89
2022/02/17 12:30:33;;;;;;;12.80;3.80;;;13.50;94.80;;;;;;5127469;28;20451;-88
2022/02/17 12:33:12;;;;;;;9.83;3.23;;;13.60;94.60;;;;;;5122255;28;20837;-90
2022/02/17 12:35:46;;;;;;;12.97;3.73;;;13.60;94.30;;;;;;5124364;28;20419;-89
2022/02/17 12:38:15;;;;;;;8.40;2.70;;;13.70;94.40;;;;;;5124752;28;20434;-89
2022/02/17 12:40:43;;;;;;;10.33;3.43;;;13.70;93.40;;;;;;5128234;28;20524;-89
2022/02/17 12:43:11;;;;;;;11.03;3.50;;;13.80;93.20;;;;;;5129126;28;20409;-89
2022/02/17 12:45:43;;;;;;;15.10;3.97;;;13.80;93.10;;;;;;5134793;28;20444;-89
2022/02/17 12:48:11;;;;;;;9.80;3.53;;;13.90;93.20;;;;;;5125044;28;20419;-89
2022/02/17 12:50:42;;;;;;;11.57;3.50;;;14.00;93.00;;;;;;5125727;28;20473;-87
2022/02/17 12:53:10;;;;;;;13.27;3.23;;;13.90;93.10;;;;;;5130676;28;20429;-89
2022/02/17 12:55:42;;;;;;;13.13;3.90;;;13.90;93.10;;;;;;5133534;28;20540;-89
2022/02/17 12:58:12;;;;;;;11.77;2.87;;;14.00;92.90;;;;;;5130245;28;20438;-89
2022/02/17 13:00:43;;;;;;;11.87;3.03;;;14.10;92.30;;;;;;5129446;28;20440;-89
2022/02/17 13:03:11;;;;;;;15.20;4.30;;;14.00;92.30;;;;;;5134146;28;20480;-89